createdAt,value
2023-05-25T00:01:03.088Z,5.60
2023-05-25T00:03:31.432Z,6.50
2023-05-25T00:06:01.442Z,4.90
2023-05-25T00:08:29.111Z,5.67
2023-05-25T00:10:55.851Z,5.70
2023-05-25T00:13:22.536Z,6.30
2023-05-25T00:15:49.390Z,5.97
2023-05-25T00:18:16.223Z,5.73
2023-05-25T00:20:44.559Z,6.53
2023-05-25T00:23:11.455Z,6.33
2023-05-25T00:25:38.252Z,5.90
2023-05-25T00:28:05.048Z,6.53
2023-05-25T00:30:31.860Z,6.17
2023-05-25T00:32:59.802Z,6.13
2023-05-25T00:35:26.649Z,6.03
2023-05-25T00:37:53.548Z,5.77
2023-05-25T00:40:20.860Z,6.20
2023-05-25T00:42:47.633Z,7.47
2023-05-25T00:45:14.678Z,6.60
2023-05-25T00:47:41.605Z,7.50
2023-05-25T00:50:10.612Z,7.03
2023-05-25T00:52:37.392Z,7.27
2023-05-25T00:55:06.682Z,7.17
2023-05-25T00:57:37.774Z,7.50
2023-05-25T01:00:11.395Z,7.60
2023-05-25T01:02:41.120Z,7.47
2023-05-25T01:05:10.716Z,7.50
2023-05-25T01:07:39.103Z,6.80
2023-05-25T01:10:09.721Z,7.00
2023-05-25T01:12:38.531Z,7.60
2023-05-25T01:15:06.365Z,7.70
2023-05-25T01:17:37.981Z,6.77
2023-05-25T01:20:11.663Z,7.07
2023-05-25T01:22:59.851Z,7.17
2023-05-25T01:25:40.728Z,7.13
2023-05-25T01:28:11.667Z,7.10
2023-05-25T01:30:42.169Z,7.60
2023-05-25T01:33:10.792Z,6.80
2023-05-25T01:35:38.814Z,7.30
2023-05-25T01:38:05.852Z,6.40
2023-05-25T01:40:32.798Z,7.20
2023-05-25T01:42:59.628Z,6.90
2023-05-25T01:45:26.934Z,7.33
2023-05-25T01:48:03.425Z,6.73
2023-05-25T01:50:57.410Z,7.83
2023-05-25T01:53:29.505Z,6.90
2023-05-25T01:56:02.317Z,7.30
2023-05-25T01:58:34.791Z,8.17
2023-05-25T02:01:01.802Z,8.87
2023-05-25T02:03:28.843Z,7.47
2023-05-25T02:05:57.836Z,6.83
2023-05-25T02:08:24.770Z,7.30
2023-05-25T02:10:51.513Z,6.90
2023-05-25T02:13:18.373Z,8.50
2023-05-25T02:15:45.228Z,7.07
2023-05-25T02:18:13.718Z,7.23
2023-05-25T02:20:40.912Z,7.27
2023-05-25T02:23:07.828Z,7.60
2023-05-25T02:25:35.944Z,7.53
2023-05-25T02:28:02.759Z,8.33
2023-05-25T02:30:29.423Z,7.43
2023-05-25T02:32:56.624Z,7.83
2023-05-25T02:35:23.679Z,7.33
2023-05-25T02:37:51.230Z,8.37
2023-05-25T02:40:18.732Z,8.43
2023-05-25T02:42:45.722Z,9.53
2023-05-25T02:45:12.652Z,8.60
2023-05-25T02:47:39.423Z,9.03
2023-05-25T02:50:06.899Z,8.00
2023-05-25T02:52:33.747Z,7.83
2023-05-25T02:55:00.993Z,7.93
2023-05-25T02:57:28.449Z,8.57
2023-05-25T02:59:55.176Z,8.87
2023-05-25T03:02:25.474Z,8.63
2023-05-25T03:04:53.765Z,8.03
2023-05-25T03:07:21.478Z,9.37
2023-05-25T03:09:48.175Z,9.03
2023-05-25T03:12:15.026Z,8.70
2023-05-25T03:14:41.934Z,8.83
2023-05-25T03:17:08.610Z,9.00
2023-05-25T03:19:35.359Z,8.67
2023-05-25T03:22:03.701Z,9.23
2023-05-25T03:24:30.436Z,9.17
2023-05-25T03:26:57.111Z,9.30
2023-05-25T03:29:23.923Z,9.67
2023-05-25T03:31:50.923Z,9.47
2023-05-25T03:34:18.489Z,8.43
2023-05-25T03:36:47.427Z,8.23
2023-05-25T03:39:14.260Z,8.87
2023-05-25T03:41:40.929Z,8.60
2023-05-25T03:44:07.765Z,8.00
2023-05-25T03:46:34.547Z,8.20
2023-05-25T03:49:01.380Z,8.40
2023-05-25T03:51:29.924Z,8.20
2023-05-25T03:53:56.767Z,7.90
2023-05-25T03:56:23.622Z,7.97
2023-05-25T03:58:50.495Z,8.20
2023-05-25T04:01:17.289Z,7.93
2023-05-25T04:03:44.165Z,9.13
2023-05-25T04:06:11.604Z,9.10
2023-05-25T04:08:41.164Z,8.00
2023-05-25T04:11:07.959Z,7.40
2023-05-25T04:13:36.417Z,8.80
2023-05-25T04:16:03.310Z,8.63
2023-05-25T04:18:30.164Z,8.53
2023-05-25T04:20:57.454Z,8.40
2023-05-25T04:23:24.412Z,10.30
2023-05-25T04:25:51.407Z,8.40
2023-05-25T04:28:18.910Z,9.03
2023-05-25T04:30:45.850Z,9.37
2023-05-25T04:33:12.781Z,8.70
2023-05-25T04:35:40.817Z,9.83
2023-05-25T04:38:07.813Z,10.63
2023-05-25T04:40:35.456Z,9.40
2023-05-25T04:43:03.477Z,10.17
2023-05-25T04:45:31.960Z,10.13
2023-05-25T04:48:01.468Z,10.07
2023-05-25T04:50:28.992Z,9.60
2023-05-25T04:52:55.743Z,9.37
2023-05-25T04:55:22.476Z,9.63
2023-05-25T04:57:49.636Z,9.37
2023-05-25T05:00:17.056Z,10.27
2023-05-25T05:02:44.147Z,10.23
2023-05-25T05:05:11.098Z,10.70
2023-05-25T05:07:38.331Z,10.13
2023-05-25T05:10:06.254Z,9.93
2023-05-25T05:12:33.048Z,10.57
2023-05-25T05:14:59.816Z,9.70
2023-05-25T05:17:28.044Z,10.50
2023-05-25T05:19:54.841Z,9.50
2023-05-25T05:25:16.784Z,9.20
2023-05-25T05:27:43.618Z,9.93
2023-05-25T05:30:10.937Z,9.20
2023-05-25T05:32:37.633Z,8.93
2023-05-25T05:35:05.760Z,8.80
2023-05-25T05:37:32.418Z,9.27
2023-05-25T05:39:59.252Z,8.53
2023-05-25T05:42:26.030Z,8.90
2023-05-25T05:44:52.743Z,9.00
2023-05-25T05:47:19.461Z,8.63
2023-05-25T05:49:47.388Z,8.53
2023-05-25T05:52:14.308Z,8.93
2023-05-25T05:54:41.131Z,8.63
2023-05-25T05:57:07.859Z,9.23
2023-05-25T05:59:34.811Z,9.10
2023-05-25T06:02:01.595Z,9.30
2023-05-25T06:04:29.129Z,8.67
2023-05-25T06:06:56.152Z,8.30
2023-05-25T06:09:25.867Z,9.13
2023-05-25T06:11:52.813Z,8.63
2023-05-25T06:14:19.786Z,8.87
2023-05-25T06:16:46.678Z,9.07
2023-05-25T06:19:14.541Z,8.57
2023-05-25T06:21:41.481Z,8.53
2023-05-25T06:24:09.812Z,7.83
2023-05-25T06:26:36.575Z,7.93
2023-05-25T06:29:03.295Z,8.10
2023-05-25T06:31:30.263Z,7.93
2023-05-25T06:33:58.211Z,7.17
2023-05-25T06:36:25.312Z,8.23
2023-05-25T06:38:52.765Z,7.67
2023-05-25T06:41:20.296Z,8.40
2023-05-25T06:43:47.821Z,7.57
2023-05-25T06:46:18.220Z,9.07
2023-05-25T06:48:46.631Z,8.33
2023-05-25T06:51:14.087Z,8.23
2023-05-25T06:53:41.220Z,8.73
2023-05-25T06:56:09.507Z,9.03
2023-05-25T06:58:36.486Z,8.90
2023-05-25T07:01:03.766Z,9.63
2023-05-25T07:03:31.256Z,10.20
2023-05-25T07:05:58.539Z,9.33
2023-05-25T07:08:25.371Z,8.80
2023-05-25T07:10:52.088Z,9.13
2023-05-25T07:13:18.897Z,9.27
2023-05-25T07:15:47.258Z,8.90
2023-05-25T07:18:14.672Z,9.07
2023-05-25T07:20:42.246Z,8.60
2023-05-25T07:23:12.158Z,9.80
2023-05-25T07:25:40.157Z,8.80
2023-05-25T07:28:08.801Z,8.20
2023-05-25T07:30:37.619Z,7.93
2023-05-25T07:33:06.884Z,8.77
2023-05-25T07:35:36.199Z,8.37
2023-05-25T07:38:07.157Z,8.33
2023-05-25T07:40:34.647Z,8.80
2023-05-25T07:43:02.504Z,8.70
2023-05-25T07:45:29.298Z,8.30
2023-05-25T07:47:56.127Z,7.83
2023-05-25T07:50:24.338Z,8.43
2023-05-25T07:52:54.661Z,8.73
2023-05-25T07:55:28.812Z,7.77
2023-05-25T07:58:01.786Z,8.93
2023-05-25T08:00:32.379Z,8.70
2023-05-25T08:02:59.648Z,9.47
2023-05-25T08:05:26.997Z,8.83
2023-05-25T08:07:54.051Z,8.17
2023-05-25T08:10:20.856Z,8.53
2023-05-25T08:12:49.386Z,15.33
2023-05-25T08:15:17.654Z,9.10
2023-05-25T08:17:44.797Z,8.80
2023-05-25T08:20:12.397Z,7.70
2023-05-25T08:22:39.308Z,7.77
2023-05-25T08:25:07.068Z,7.37
2023-05-25T08:27:35.945Z,8.80
2023-05-25T08:30:03.505Z,7.23
2023-05-25T08:32:30.434Z,6.97
2023-05-25T08:34:57.256Z,7.67
2023-05-25T08:37:24.950Z,7.87
2023-05-25T08:39:51.692Z,7.07
2023-05-25T08:42:18.515Z,7.83
2023-05-25T08:44:45.393Z,7.13
2023-05-25T08:47:13.377Z,6.97
2023-05-25T08:49:41.737Z,7.37
2023-05-25T08:52:14.932Z,7.43
2023-05-25T08:54:44.994Z,7.23
2023-05-25T08:57:20.907Z,6.87
2023-05-25T09:00:04.241Z,6.30
2023-05-25T09:02:35.867Z,6.00
2023-05-25T09:05:02.997Z,6.77
2023-05-25T09:07:30.446Z,6.33
2023-05-25T09:09:58.461Z,5.50
2023-05-25T09:12:25.401Z,6.00
2023-05-25T09:14:53.909Z,5.77
2023-05-25T09:17:21.357Z,7.03
2023-05-25T09:19:49.937Z,6.43
2023-05-25T09:22:17.265Z,6.10
2023-05-25T09:24:45.311Z,6.67
2023-05-25T09:27:13.662Z,6.83
2023-05-25T09:29:40.617Z,5.60
2023-05-25T09:32:07.972Z,6.67
2023-05-25T09:34:35.451Z,5.93
2023-05-25T09:37:16.380Z,6.10
2023-05-25T09:39:44.577Z,7.07
2023-05-25T09:42:12.176Z,5.97
2023-05-25T09:44:40.607Z,6.90
2023-05-25T09:47:07.455Z,5.80
2023-05-25T09:49:35.583Z,5.97
2023-05-25T09:52:02.487Z,6.70
2023-05-25T09:54:29.698Z,5.17
2023-05-25T09:56:56.443Z,5.30
2023-05-25T09:59:23.723Z,5.97
2023-05-25T10:01:53.805Z,5.93
2023-05-25T10:04:21.107Z,6.20
2023-05-25T10:06:50.011Z,5.10
2023-05-25T10:09:19.264Z,5.37
2023-05-25T10:11:46.453Z,5.00
2023-05-25T10:14:17.580Z,4.57
2023-05-25T10:16:50.247Z,5.20
2023-05-25T10:19:33.265Z,4.77
2023-05-25T10:22:08.826Z,4.47
2023-05-25T10:24:53.953Z,5.70
2023-05-25T10:27:27.611Z,4.83
2023-05-25T10:29:56.760Z,5.80
2023-05-25T10:32:24.796Z,5.57
2023-05-25T10:34:52.775Z,5.77
2023-05-25T10:37:19.938Z,24.77
2023-05-25T10:39:47.609Z,7.90
2023-05-25T10:42:14.344Z,4.87
2023-05-25T10:44:43.128Z,5.90
2023-05-25T10:47:10.550Z,5.23
2023-05-25T10:49:53.585Z,5.23
2023-05-25T10:52:21.446Z,4.73
2023-05-25T10:54:48.664Z,5.03
2023-05-25T10:57:23.108Z,5.07
2023-05-25T10:59:51.581Z,5.50
2023-05-25T11:02:29.059Z,4.40
2023-05-25T11:05:26.880Z,4.60
2023-05-25T11:07:58.581Z,5.10
2023-05-25T11:10:43.559Z,5.17
2023-05-25T11:13:31.288Z,5.10
2023-05-25T11:16:14.886Z,3.67
2023-05-25T11:18:42.132Z,4.10
2023-05-25T11:21:18.789Z,4.80
2023-05-25T11:24:03.062Z,4.50
2023-05-25T11:26:32.498Z,4.33
2023-05-25T11:29:00.700Z,3.87
2023-05-25T11:31:35.230Z,4.53
2023-05-25T11:34:05.225Z,3.57
2023-05-25T11:36:34.732Z,3.93
2023-05-25T11:39:09.141Z,4.30
2023-05-25T11:41:47.691Z,3.80
2023-05-25T11:44:14.773Z,4.07
2023-05-25T11:46:43.694Z,3.70
2023-05-25T11:49:10.760Z,3.93
2023-05-25T11:51:38.000Z,4.57
2023-05-25T11:54:04.948Z,4.03
2023-05-25T11:56:35.880Z,4.20
2023-05-25T11:59:07.258Z,4.23
2023-05-25T12:01:33.978Z,4.47
2023-05-25T12:04:09.221Z,4.47
2023-05-25T12:06:40.268Z,4.10
2023-05-25T12:09:13.116Z,4.60
2023-05-25T12:11:40.006Z,4.40
2023-05-25T12:14:07.539Z,4.00
2023-05-25T12:16:37.086Z,4.43
2023-05-25T12:19:04.605Z,3.97
2023-05-25T12:21:32.232Z,3.73
2023-05-25T12:23:59.581Z,3.53
2023-05-25T12:26:26.980Z,4.37
2023-05-25T12:29:08.192Z,3.80
2023-05-25T12:31:38.756Z,3.87
2023-05-25T12:34:08.238Z,4.53
2023-05-25T12:36:52.615Z,3.83
2023-05-25T12:39:31.315Z,3.90
2023-05-25T12:41:59.684Z,3.93
2023-05-25T12:44:32.445Z,3.67
2023-05-25T12:47:25.440Z,4.07
2023-05-25T12:49:54.239Z,4.90
2023-05-25T12:52:38.221Z,4.30
2023-05-25T12:55:28.136Z,5.03
2023-05-25T12:57:55.684Z,5.07
2023-05-25T13:00:23.857Z,4.30
2023-05-25T13:02:51.538Z,4.57
2023-05-25T13:05:23.317Z,3.90
2023-05-25T13:07:50.539Z,4.17
2023-05-25T13:10:18.210Z,5.20
2023-05-25T13:12:46.785Z,4.20
2023-05-25T13:15:15.352Z,3.60
2023-05-25T13:17:45.492Z,4.10
2023-05-25T13:20:14.177Z,4.17
2023-05-25T13:22:43.457Z,3.83
2023-05-25T13:25:11.980Z,4.97
2023-05-25T13:27:41.356Z,4.20
2023-05-25T13:30:08.703Z,4.17
2023-05-25T13:32:35.570Z,4.07
2023-05-25T13:35:04.582Z,4.67
2023-05-25T13:37:33.227Z,4.67
2023-05-25T13:40:00.415Z,4.40
2023-05-25T13:42:27.249Z,4.40
2023-05-25T13:44:53.950Z,4.60
2023-05-25T13:47:20.710Z,3.90
2023-05-25T13:49:47.686Z,3.70
2023-05-25T13:52:14.479Z,4.70
2023-05-25T13:54:41.153Z,4.57
2023-05-25T13:57:07.870Z,4.20
2023-05-25T13:59:34.630Z,5.30
2023-05-25T14:04:37.647Z,4.83
2023-05-25T14:07:04.489Z,4.20
2023-05-25T14:09:31.883Z,4.43
2023-05-25T14:11:58.594Z,4.23
2023-05-25T14:14:32.036Z,4.03
2023-05-25T14:17:01.052Z,4.57
2023-05-25T14:19:28.058Z,4.27
2023-05-25T14:24:24.339Z,4.80
2023-05-25T14:26:51.100Z,4.27
2023-05-25T14:29:17.797Z,4.60
2023-05-25T14:31:44.594Z,4.23
2023-05-25T14:34:11.302Z,4.97
2023-05-25T14:36:38.207Z,4.50
2023-05-25T14:39:05.217Z,4.20
2023-05-25T14:41:31.927Z,4.83
2023-05-25T14:43:58.606Z,4.77
2023-05-25T14:46:25.357Z,4.63
2023-05-25T14:48:52.027Z,4.03
2023-05-25T14:51:18.726Z,5.07
2023-05-25T14:53:45.891Z,4.63
2023-05-25T14:56:12.639Z,4.73
2023-05-25T14:58:39.397Z,5.43
2023-05-25T15:01:06.132Z,4.53
2023-05-25T15:03:33.096Z,5.00
2023-05-25T15:05:59.914Z,5.37
2023-05-25T15:08:26.936Z,4.97
2023-05-25T15:10:53.746Z,4.60
2023-05-25T15:13:22.533Z,5.07
2023-05-25T15:15:52.001Z,5.00
2023-05-25T15:18:18.832Z,4.83
2023-05-25T15:20:45.681Z,4.53
2023-05-25T15:23:13.588Z,5.83
2023-05-25T15:25:40.266Z,5.33
2023-05-25T15:28:07.065Z,4.30
2023-05-25T15:30:34.558Z,5.80
2023-05-25T15:33:01.964Z,4.87
2023-05-25T15:35:32.102Z,5.60
2023-05-25T15:37:59.811Z,5.60
2023-05-25T15:40:27.091Z,5.43
2023-05-25T15:42:53.890Z,5.53
2023-05-25T15:45:20.622Z,5.10
2023-05-25T15:47:47.454Z,4.80
2023-05-25T15:50:14.169Z,5.33
2023-05-25T15:52:41.913Z,4.90
2023-05-25T15:55:09.658Z,4.93
2023-05-25T15:57:36.305Z,5.43
2023-05-25T16:00:05.566Z,5.33
2023-05-25T16:02:32.688Z,5.67
2023-05-25T16:04:59.433Z,5.43
2023-05-25T16:07:26.673Z,5.47
2023-05-25T16:09:53.410Z,5.23
2023-05-25T16:12:24.744Z,5.33
2023-05-25T16:14:52.178Z,4.67
2023-05-25T16:17:19.301Z,4.97
2023-05-25T16:19:46.449Z,5.03
2023-05-25T16:22:13.255Z,5.37
2023-05-25T16:24:40.174Z,5.07
2023-05-25T16:27:07.090Z,5.43
2023-05-25T16:29:33.805Z,5.47
2023-05-25T16:32:00.589Z,4.27
2023-05-25T16:34:27.278Z,4.73
2023-05-25T16:36:53.963Z,5.07
2023-05-25T16:39:20.692Z,5.13
2023-05-25T16:41:49.460Z,5.30
2023-05-25T16:44:17.473Z,5.53
2023-05-25T16:46:44.298Z,5.47
2023-05-25T16:49:11.115Z,5.00
2023-05-25T16:51:37.887Z,5.37
2023-05-25T16:54:04.717Z,5.53
2023-05-25T16:56:31.738Z,5.10
2023-05-25T16:58:58.420Z,5.67
2023-05-25T17:01:25.234Z,5.23
2023-05-25T17:03:52.027Z,5.20
2023-05-25T17:06:18.745Z,4.70
2023-05-25T17:08:45.416Z,6.43
2023-05-25T17:11:12.305Z,5.10
2023-05-25T17:13:39.063Z,6.10
2023-05-25T17:16:05.987Z,5.33
2023-05-25T17:18:32.661Z,5.20
2023-05-25T17:20:59.360Z,5.80
2023-05-25T17:23:26.028Z,5.73
2023-05-25T17:25:52.742Z,5.90
2023-05-25T17:28:19.397Z,6.03
2023-05-25T17:30:46.082Z,5.10
2023-05-25T17:33:12.872Z,5.60
2023-05-25T17:35:39.627Z,4.60
2023-05-25T17:38:06.298Z,4.93
2023-05-25T17:40:33.041Z,4.83
2023-05-25T17:42:59.756Z,5.10
2023-05-25T17:45:26.526Z,4.83
2023-05-25T17:47:53.262Z,4.53
2023-05-25T17:50:20.034Z,5.40
2023-05-25T17:52:46.728Z,4.93
2023-05-25T17:55:13.608Z,5.67
2023-05-25T17:57:40.405Z,5.33
2023-05-25T18:00:07.757Z,4.83
2023-05-25T18:02:34.678Z,5.40
2023-05-25T18:05:01.531Z,5.50
2023-05-25T18:07:28.248Z,6.03
2023-05-25T18:09:54.979Z,5.60
2023-05-25T18:12:21.671Z,5.20
2023-05-25T18:14:48.936Z,5.07
2023-05-25T18:17:15.721Z,5.10
2023-05-25T18:19:42.432Z,5.70
2023-05-25T18:22:09.155Z,5.50
2023-05-25T18:24:36.136Z,5.73
2023-05-25T18:27:03.794Z,5.57
2023-05-25T18:29:30.985Z,5.23
2023-05-25T18:31:57.686Z,5.00
2023-05-25T18:34:24.349Z,6.27
2023-05-25T18:36:51.277Z,6.80
2023-05-25T18:39:17.989Z,6.00
2023-05-25T18:41:44.663Z,6.20
2023-05-25T18:44:11.562Z,5.13
2023-05-25T18:46:40.714Z,5.83
2023-05-25T18:49:07.532Z,5.70
2023-05-25T18:51:34.260Z,6.00
2023-05-25T18:54:01.186Z,5.93
2023-05-25T18:56:27.943Z,6.10
2023-05-25T18:58:56.949Z,5.13
2023-05-25T19:01:25.656Z,5.50
2023-05-25T19:03:52.680Z,5.23
2023-05-25T19:06:20.040Z,5.40
2023-05-25T19:08:46.841Z,5.53
2023-05-25T19:11:15.477Z,6.23
2023-05-25T19:13:42.292Z,6.03
2023-05-25T19:16:09.484Z,6.00
2023-05-25T19:18:36.198Z,6.30
2023-05-25T19:21:03.473Z,5.93
2023-05-25T19:23:30.539Z,5.70
2023-05-25T19:25:57.225Z,5.50
2023-05-25T19:28:23.982Z,6.33
2023-05-25T19:30:50.866Z,6.27
2023-05-25T19:33:17.772Z,7.07
2023-05-25T19:35:45.272Z,6.10
2023-05-25T19:38:12.702Z,6.23
2023-05-25T19:40:39.599Z,6.20
2023-05-25T19:43:06.334Z,7.37
2023-05-25T19:45:33.131Z,6.07
2023-05-25T19:47:59.844Z,6.23
2023-05-25T19:50:30.412Z,6.33
2023-05-25T19:52:58.866Z,7.13
2023-05-25T19:55:28.965Z,6.50
2023-05-25T19:57:55.659Z,5.90
2023-05-25T20:00:26.675Z,7.50
2023-05-25T20:02:53.972Z,7.83
2023-05-25T20:05:20.985Z,6.47
2023-05-25T20:07:47.821Z,6.43
2023-05-25T20:10:14.688Z,7.27
2023-05-25T20:12:41.435Z,5.77
2023-05-25T20:15:09.541Z,6.40
2023-05-25T20:17:36.628Z,6.40
2023-05-25T20:20:05.182Z,6.03
2023-05-25T20:22:35.338Z,7.50
2023-05-25T20:25:02.468Z,7.10
2023-05-25T20:27:29.153Z,7.17
2023-05-25T20:29:55.900Z,6.97
2023-05-25T20:32:22.718Z,6.47
2023-05-25T20:34:49.926Z,7.27
2023-05-25T20:37:17.251Z,6.73
2023-05-25T20:39:44.084Z,6.87
2023-05-25T20:42:11.825Z,5.57
2023-05-25T20:44:38.632Z,5.73
2023-05-25T20:47:05.501Z,7.03
2023-05-25T20:49:32.173Z,6.50
2023-05-25T20:51:58.864Z,6.17
2023-05-25T20:54:25.570Z,6.13
2023-05-25T20:56:58.441Z,6.33
2023-05-25T20:59:25.377Z,6.87
2023-05-25T21:01:52.117Z,5.87
2023-05-25T21:04:19.204Z,6.57
2023-05-25T21:06:46.318Z,5.27
2023-05-25T21:09:13.011Z,6.30
2023-05-25T21:11:39.896Z,6.10
2023-05-25T21:14:07.126Z,5.90
2023-05-25T21:16:33.927Z,6.10
2023-05-25T21:19:01.292Z,6.77
2023-05-25T21:21:33.882Z,5.90
2023-05-25T21:24:03.831Z,5.80
2023-05-25T21:26:31.105Z,5.73
2023-05-25T21:28:58.078Z,5.70
2023-05-25T21:31:25.477Z,7.30
2023-05-25T21:33:53.188Z,5.53
2023-05-25T21:36:20.710Z,6.97
2023-05-25T21:38:47.381Z,6.40
2023-05-25T21:41:14.343Z,5.47
2023-05-25T21:43:41.085Z,5.27
2023-05-25T21:46:07.908Z,5.23
2023-05-25T21:48:34.824Z,5.93
2023-05-25T21:51:01.496Z,5.57
2023-05-25T21:53:28.247Z,6.17
2023-05-25T21:55:54.948Z,5.47
2023-05-25T21:58:21.614Z,5.17
2023-05-25T22:00:48.567Z,6.23
2023-05-25T22:03:15.552Z,4.97
2023-05-25T22:05:42.452Z,5.33
2023-05-25T22:08:09.432Z,6.50
2023-05-25T22:10:39.024Z,4.63
2023-05-25T22:13:05.685Z,4.90
2023-05-25T22:15:32.372Z,5.13
2023-05-25T22:17:59.752Z,4.83
2023-05-25T22:20:26.726Z,5.07
2023-05-25T22:22:53.635Z,4.07
2023-05-25T22:25:20.353Z,5.60
2023-05-25T22:27:47.031Z,5.20
2023-05-25T22:30:13.923Z,5.23
2023-05-25T22:32:40.713Z,5.33
2023-05-25T22:35:07.924Z,5.37
2023-05-25T22:37:34.677Z,5.03
2023-05-25T22:40:01.825Z,5.03
2023-05-25T22:42:28.540Z,4.57
2023-05-25T22:44:55.305Z,5.00
2023-05-25T22:47:22.026Z,6.20
2023-05-25T22:49:48.761Z,6.40
2023-05-25T22:52:15.756Z,5.13
2023-05-25T22:54:42.816Z,6.00
2023-05-25T22:57:09.935Z,5.07
2023-05-25T22:59:36.761Z,5.70
2023-05-25T23:02:03.624Z,5.53
2023-05-25T23:04:30.471Z,5.17
2023-05-25T23:06:57.431Z,5.97
2023-05-25T23:09:24.110Z,5.20
2023-05-25T23:11:50.756Z,5.87
2023-05-25T23:14:17.460Z,6.53
2023-05-25T23:16:44.660Z,5.43
2023-05-25T23:19:11.457Z,4.93
2023-05-25T23:21:38.308Z,6.10
2023-05-25T23:24:05.905Z,5.80
2023-05-25T23:26:32.824Z,5.77
2023-05-25T23:28:59.574Z,5.33
2023-05-25T23:31:26.828Z,5.23
2023-05-25T23:33:54.043Z,7.70
2023-05-25T23:36:20.903Z,5.83
2023-05-25T23:38:47.624Z,6.03
2023-05-25T23:41:16.427Z,6.43
2023-05-25T23:43:43.161Z,5.20
2023-05-25T23:46:09.888Z,5.00
2023-05-25T23:48:36.687Z,5.50
2023-05-25T23:51:04.054Z,5.50
2023-05-25T23:53:30.999Z,5.60
2023-05-25T23:55:57.661Z,5.53
2023-05-25T23:58:25.658Z,5.67
